Time;durP1;ratioP1;P1;durP2;ratioP2;P2;SDS_P1;SDS_P2;PMS_P1;PMS_P2;Temp;Humidity;BMP_temperature;BMP_pressure;BME280_temperature;BME280_humidity;BME280_pressure;Samples;Min_cycle;Max_cycle;Signal;HPM_P1;HPM_P2
2021/09/11 00:01:58;;;;;;;11.15;4.95;;;;;;;;;;5117365;28;20020;-68
2021/09/11 00:04:24;;;;;;;6.85;4.65;;;;;;;;;;5117754;28;20042;-67
2021/09/11 00:06:51;;;;;;;14.18;5.28;;;;;;;;;;5117377;28;20058;-72
2021/09/11 00:09:17;;;;;;;8.68;5.50;;;;;;;;;;5117172;28;20483;-67
2021/09/11 00:11:43;;;;;;;10.85;5.18;;;;;;;;;;5116839;28;20024;-68
2021/09/11 00:14:09;;;;;;;11.00;5.35;;;;;;;;;;5117073;28;20080;-73
2021/09/11 00:16:35;;;;;;;9.70;5.75;;;;;;;;;;5117064;28;20036;-67
2021/09/11 00:19:01;;;;;;;11.50;6.25;;;;;;;;;;5117014;28;20028;-71
2021/09/11 00:21:27;;;;;;;10.25;5.80;;;;;;;;;;5117171;28;20034;-68
2021/09/11 00:23:53;;;;;;;13.23;5.35;;;;;;;;;;5116846;28;20476;-68
2021/09/11 00:26:19;;;;;;;6.57;5.18;;;;;;;;;;5117216;28;20113;-67
2021/09/11 00:28:45;;;;;;;9.63;5.35;;;;;;;;;;5117025;28;20023;-67
2021/09/11 00:31:13;;;;;;;7.72;5.28;;;;;;;;;;5116943;28;20034;-72
2021/09/11 00:33:39;;;;;;;8.82;5.57;;;;;;;;;;5116844;28;20011;-68
2021/09/11 00:36:05;;;;;;;12.85;5.25;;;;;;;;;;5116463;28;20044;-68
2021/09/11 00:38:31;;;;;;;11.93;5.45;;;;;;;;;;5116878;28;20114;-68
2021/09/11 00:40:57;;;;;;;9.07;5.57;;;;;;;;;;5116586;28;20024;-68
2021/09/11 00:43:23;;;;;;;11.63;5.63;;;;;;;;;;5116513;28;20031;-68
2021/09/11 00:45:50;;;;;;;9.20;5.38;;;;;;;;;;5116454;28;20391;-68
2021/09/11 00:48:16;;;;;;;13.32;5.30;;;;;;;;;;5116661;28;20019;-68
2021/09/11 00:50:42;;;;;;;18.90;5.90;;;;;;;;;;5116276;28;20049;-68
2021/09/11 00:53:09;;;;;;;12.45;5.80;;;;;;;;;;5116574;28;20055;-68
2021/09/11 00:55:36;;;;;;;10.02;5.55;;;;;;;;;;5116461;28;20035;-68
2021/09/11 00:58:02;;;;;;;13.23;5.78;;;;;;;;;;5114987;28;20086;-67
2021/09/11 01:00:28;;;;;;;13.00;5.63;;;;;;;;;;5113012;28;20068;-67
2021/09/11 01:02:54;;;;;;;13.57;5.43;;;;;;;;;;5113542;28;20027;-68
2021/09/11 01:05:20;;;;;;;12.50;5.57;;;;;;;;;;5115115;28;20391;-67
2021/09/11 01:07:47;;;;;;;9.38;6.00;;;;;;;;;;5115416;28;20098;-67
2021/09/11 01:10:13;;;;;;;9.27;5.38;;;;;;;;;;5115982;28;20036;-68
2021/09/11 01:12:39;;;;;;;8.85;5.50;;;;;;;;;;5115646;28;20051;-67
2021/09/11 01:15:07;;;;;;;11.73;5.75;;;;;;;;;;5115597;28;20034;-67
2021/09/11 01:17:33;;;;;;;10.45;5.43;;;;;;;;;;5116097;28;20035;-68
2021/09/11 01:19:59;;;;;;;7.13;5.28;;;;;;;;;;5115632;28;20471;-68
2021/09/11 01:22:25;;;;;;;9.95;5.70;;;;;;;;;;5115610;28;20112;-68
2021/09/11 01:25:00;;;;;;;6.82;5.95;;;;;;;;;;5115914;28;20429;-67
2021/09/11 01:27:27;;;;;;;9.57;5.75;;;;;;;;;;5115611;28;20028;-68
2021/09/11 01:30:00;;;;;;;7.63;4.93;;;;;;;;;;5115443;28;20043;-68
2021/09/11 01:32:26;;;;;;;6.72;4.97;;;;;;;;;;5115567;28;20027;-67
2021/09/11 01:34:53;;;;;;;8.27;5.25;;;;;;;;;;5115751;28;20476;-68
2021/09/11 01:37:19;;;;;;;6.55;5.32;;;;;;;;;;5115145;28;20052;-68
2021/09/11 01:39:49;;;;;;;8.63;5.50;;;;;;;;;;5115186;28;20058;-69
2021/09/11 01:42:16;;;;;;;10.93;5.50;;;;;;;;;;5115525;28;20080;-67
2021/09/11 01:44:46;;;;;;;8.95;5.53;;;;;;;;;;5115436;28;20024;-68
2021/09/11 01:47:13;;;;;;;10.70;5.57;;;;;;;;;;5115382;28;20026;-68
2021/09/11 01:49:39;;;;;;;11.52;6.00;;;;;;;;;;5115509;28;20038;-70
2021/09/11 01:52:05;;;;;;;7.28;5.70;;;;;;;;;;5114921;28;20024;-67
2021/09/11 01:54:31;;;;;;;7.70;5.43;;;;;;;;;;5115081;28;20480;-67
2021/09/11 01:56:57;;;;;;;9.00;5.35;;;;;;;;;;5115032;28;20032;-67
2021/09/11 01:59:24;;;;;;;9.75;5.35;;;;;;;;;;5114565;28;20031;-68
2021/09/11 02:01:50;;;;;;;12.57;5.70;;;;;;;;;;5115011;28;20027;-68
2021/09/11 02:04:16;;;;;;;14.73;6.75;;;;;;;;;;5114977;28;20468;-68
2021/09/11 02:06:42;;;;;;;16.38;5.95;;;;;;;;;;5114981;28;20107;-68
2021/09/11 02:09:09;;;;;;;16.42;6.10;;;;;;;;;;5115197;28;20051;-71
2021/09/11 02:11:35;;;;;;;10.05;6.60;;;;;;;;;;5114931;28;20069;-71
2021/09/11 02:14:01;;;;;;;11.13;5.82;;;;;;;;;;5115025;28;20372;-67
2021/09/11 02:16:27;;;;;;;15.43;5.43;;;;;;;;;;5114726;28;20055;-67
2021/09/11 02:18:53;;;;;;;8.98;6.15;;;;;;;;;;5114726;28;20039;-67
2021/09/11 02:21:19;;;;;;;17.00;6.07;;;;;;;;;;5113885;28;20387;-67
2021/09/11 02:23:45;;;;;;;12.00;6.25;;;;;;;;;;5115053;28;20033;-67
2021/09/11 02:26:11;;;;;;;8.57;6.18;;;;;;;;;;5114734;28;20024;-66
2021/09/11 02:28:37;;;;;;;11.80;5.97;;;;;;;;;;5114522;28;20391;-67
2021/09/11 02:31:03;;;;;;;9.77;6.03;;;;;;;;;;5114346;28;20028;-67
2021/09/11 02:33:29;;;;;;;7.53;6.25;;;;;;;;;;5114326;28;20015;-67
2021/09/11 02:35:55;;;;;;;7.45;5.88;;;;;;;;;;5114238;28;20500;-67
2021/09/11 02:38:21;;;;;;;7.70;6.10;;;;;;;;;;5114492;28;20062;-67
2021/09/11 02:40:47;;;;;;;12.10;6.22;;;;;;;;;;5114515;28;20073;-67
2021/09/11 02:43:13;;;;;;;8.07;5.97;;;;;;;;;;5114223;28;20024;-67
2021/09/11 02:45:39;;;;;;;15.15;5.82;;;;;;;;;;5114126;28;20384;-67
2021/09/11 02:48:05;;;;;;;14.55;6.82;;;;;;;;;;5113978;28;20479;-68
2021/09/11 02:50:31;;;;;;;11.38;6.20;;;;;;;;;;5114111;28;20037;-72
2021/09/11 02:52:57;;;;;;;9.73;6.03;;;;;;;;;;5114308;28;20353;-66
2021/09/11 02:55:23;;;;;;;9.27;6.10;;;;;;;;;;5114103;28;20143;-67
2021/09/11 02:57:49;;;;;;;11.38;5.70;;;;;;;;;;5114433;28;20403;-71
2021/09/11 03:00:16;;;;;;;8.50;6.10;;;;;;;;;;5114202;28;20031;-67
2021/09/11 03:02:41;;;;;;;8.50;5.78;;;;;;;;;;5114177;28;20449;-67
2021/09/11 03:05:08;;;;;;;9.70;5.70;;;;;;;;;;5114192;28;20149;-67
2021/09/11 03:07:34;;;;;;;12.82;6.88;;;;;;;;;;5113996;28;20023;-69
2021/09/11 03:10:00;;;;;;;14.15;6.63;;;;;;;;;;5113823;28;20485;-67
2021/09/11 03:12:26;;;;;;;12.23;6.40;;;;;;;;;;5113967;28;20099;-67
2021/09/11 03:14:52;;;;;;;11.40;6.15;;;;;;;;;;5113862;28;20084;-67
2021/09/11 03:17:18;;;;;;;10.18;6.53;;;;;;;;;;5113989;28;20058;-71
2021/09/11 03:19:44;;;;;;;10.18;6.25;;;;;;;;;;5113890;28;20027;-67
2021/09/11 03:22:10;;;;;;;11.85;6.35;;;;;;;;;;5113913;28;20027;-71
2021/09/11 03:24:36;;;;;;;9.88;6.22;;;;;;;;;;5113871;28;20028;-67
2021/09/11 03:27:02;;;;;;;9.68;6.43;;;;;;;;;;5113676;28;20365;-68
2021/09/11 03:29:28;;;;;;;8.52;5.97;;;;;;;;;;5113715;28;20426;-68
2021/09/11 03:31:54;;;;;;;7.82;5.72;;;;;;;;;;5112511;28;20078;-66
2021/09/11 03:34:20;;;;;;;6.95;5.30;;;;;;;;;;5113621;28;20051;-66
2021/09/11 03:36:46;;;;;;;8.48;6.00;;;;;;;;;;5113271;28;20126;-67
2021/09/11 03:39:12;;;;;;;11.27;5.90;;;;;;;;;;5113773;28;20020;-66
2021/09/11 03:41:38;;;;;;;9.82;6.10;;;;;;;;;;5113251;28;20081;-67
2021/09/11 03:44:04;;;;;;;8.77;5.80;;;;;;;;;;5113397;28;20065;-67
2021/09/11 03:46:30;;;;;;;8.27;6.95;;;;;;;;;;5113283;28;20425;-67
2021/09/11 03:48:56;;;;;;;13.23;5.82;;;;;;;;;;5113323;28;20493;-67
2021/09/11 03:51:22;;;;;;;10.77;6.35;;;;;;;;;;5113331;28;20036;-68
2021/09/11 03:53:48;;;;;;;11.07;6.10;;;;;;;;;;5113525;28;20016;-67
2021/09/11 03:56:14;;;;;;;15.32;6.50;;;;;;;;;;5113309;28;20391;-67
2021/09/11 03:58:40;;;;;;;8.52;6.43;;;;;;;;;;5113394;28;20031;-67
2021/09/11 04:01:06;;;;;;;7.78;6.07;;;;;;;;;;5113358;28;20038;-68
2021/09/11 04:03:33;;;;;;;10.32;6.38;;;;;;;;;;5113304;28;20028;-67
2021/09/11 04:05:59;;;;;;;6.82;5.90;;;;;;;;;;5113272;28;20464;-67
2021/09/11 04:08:25;;;;;;;9.50;6.25;;;;;;;;;;5113248;28;20073;-67
2021/09/11 04:10:52;;;;;;;18.27;6.20;;;;;;;;;;5113002;28;20023;-67
2021/09/11 04:13:18;;;;;;;11.07;6.25;;;;;;;;;;5112961;28;20088;-71
2021/09/11 04:15:44;;;;;;;13.68;6.22;;;;;;;;;;5113098;28;20028;-68
2021/09/11 04:18:10;;;;;;;12.10;6.65;;;;;;;;;;5113265;28;20022;-67
2021/09/11 04:20:36;;;;;;;8.85;5.88;;;;;;;;;;5113239;28;20387;-67
2021/09/11 04:23:02;;;;;;;9.73;6.00;;;;;;;;;;5113004;28;20024;-67
2021/09/11 04:25:28;;;;;;;7.57;5.78;;;;;;;;;;5113016;28;20051;-71
2021/09/11 04:27:55;;;;;;;13.25;6.30;;;;;;;;;;5112967;28;20100;-70
2021/09/11 04:30:21;;;;;;;9.02;6.88;;;;;;;;;;5113255;28;20032;-67
2021/09/11 04:32:47;;;;;;;9.48;7.10;;;;;;;;;;5113112;28;20421;-67
2021/09/11 04:35:13;;;;;;;9.00;6.30;;;;;;;;;;5112796;28;20028;-67
2021/09/11 04:37:39;;;;;;;11.07;7.20;;;;;;;;;;5113305;28;20027;-71
2021/09/11 04:40:05;;;;;;;8.35;6.00;;;;;;;;;;5112869;28;20039;-72
2021/09/11 04:42:31;;;;;;;16.38;6.80;;;;;;;;;;5113069;28;20055;-67
2021/09/11 04:44:57;;;;;;;9.82;6.90;;;;;;;;;;5116647;28;20474;-67
2021/09/11 04:47:23;;;;;;;10.10;6.88;;;;;;;;;;5116654;28;20055;-67
2021/09/11 04:49:49;;;;;;;10.13;6.30;;;;;;;;;;5116730;28;20028;-67
2021/09/11 04:52:16;;;;;;;16.08;6.82;;;;;;;;;;5116501;28;20035;-67
2021/09/11 04:54:42;;;;;;;11.80;6.35;;;;;;;;;;5116691;28;20054;-67
2021/09/11 04:57:08;;;;;;;10.18;6.18;;;;;;;;;;5116263;28;20483;-67
2021/09/11 04:59:34;;;;;;;8.68;6.35;;;;;;;;;;5116305;28;20413;-67
2021/09/11 05:02:00;;;;;;;9.70;6.43;;;;;;;;;;5115972;28;20365;-67
2021/09/11 05:04:26;;;;;;;8.52;6.60;;;;;;;;;;5116643;28;20027;-67
2021/09/11 05:06:52;;;;;;;11.80;6.15;;;;;;;;;;5116432;28;20124;-67
2021/09/11 05:09:18;;;;;;;10.80;6.50;;;;;;;;;;5116305;28;20092;-67
2021/09/11 05:11:44;;;;;;;10.02;6.35;;;;;;;;;;5116136;28;20034;-67
2021/09/11 05:14:10;;;;;;;10.18;6.28;;;;;;;;;;5116312;28;20387;-67
2021/09/11 05:16:36;;;;;;;9.50;6.40;;;;;;;;;;5115490;28;20048;-67
2021/09/11 05:19:02;;;;;;;15.15;6.68;;;;;;;;;;5116098;28;20023;-67
2021/09/11 05:21:28;;;;;;;12.75;6.07;;;;;;;;;;5116618;28;20349;-67
2021/09/11 05:23:54;;;;;;;11.30;6.38;;;;;;;;;;5115630;28;20102;-67
2021/09/11 05:26:20;;;;;;;9.98;6.22;;;;;;;;;;5115491;28;20114;-66
2021/09/11 05:28:46;;;;;;;10.52;6.07;;;;;;;;;;5118229;28;20059;-66
2021/09/11 05:31:12;;;;;;;14.50;5.95;;;;;;;;;;5115820;28;20106;-68
2021/09/11 05:33:38;;;;;;;7.15;6.10;;;;;;;;;;5115359;28;20120;-67
2021/09/11 05:36:04;;;;;;;7.30;5.75;;;;;;;;;;5114742;28;20052;-67
2021/09/11 05:38:30;;;;;;;13.90;6.40;;;;;;;;;;5115740;28;20390;-71
2021/09/11 05:40:56;;;;;;;8.75;6.20;;;;;;;;;;5115335;28;20032;-70
2021/09/11 05:43:24;;;;;;;9.80;6.18;;;;;;;;;;5114975;28;20038;-71
2021/09/11 05:45:50;;;;;;;10.18;6.38;;;;;;;;;;5115033;28;20024;-69
2021/09/11 05:48:16;;;;;;;9.23;5.97;;;;;;;;;;5114833;28;20032;-66
2021/09/11 05:50:42;;;;;;;11.57;5.75;;;;;;;;;;5114994;28;20069;-70
2021/09/11 05:53:08;;;;;;;7.70;5.82;;;;;;;;;;5114990;28;20097;-66
2021/09/11 05:55:34;;;;;;;7.40;6.07;;;;;;;;;;5114857;28;20461;-66
2021/09/11 05:58:00;;;;;;;9.55;5.88;;;;;;;;;;5114889;28;20026;-70
2021/09/11 06:00:26;;;;;;;9.45;6.05;;;;;;;;;;5114861;28;20102;-68
2021/09/11 06:02:52;;;;;;;7.30;5.53;;;;;;;;;;5115057;28;20024;-67
2021/09/11 06:05:18;;;;;;;6.53;5.45;;;;;;;;;;5114982;28;20069;-68
2021/09/11 06:07:44;;;;;;;10.43;6.00;;;;;;;;;;5115098;28;20024;-69
2021/09/11 06:10:11;;;;;;;9.52;5.78;;;;;;;;;;5115098;28;20104;-68
2021/09/11 06:12:37;;;;;;;7.82;5.70;;;;;;;;;;5114917;28;20028;-70
2021/09/11 06:15:04;;;;;;;11.90;5.35;;;;;;;;;;5114485;28;20028;-68
2021/09/11 06:17:30;;;;;;;15.15;5.90;;;;;;;;;;5114870;28;20484;-68
2021/09/11 06:19:56;;;;;;;16.85;5.60;;;;;;;;;;5115108;28;20030;-68
2021/09/11 06:22:22;;;;;;;11.75;6.07;;;;;;;;;;5115123;28;20379;-68
2021/09/11 06:24:48;;;;;;;12.88;6.10;;;;;;;;;;5114182;28;20024;-68
2021/09/11 06:27:14;;;;;;;9.77;5.63;;;;;;;;;;5114532;28;20027;-68
2021/09/11 06:29:40;;;;;;;13.75;5.88;;;;;;;;;;5114602;28;20015;-69
2021/09/11 06:32:06;;;;;;;9.18;5.45;;;;;;;;;;5114558;28;20032;-68
2021/09/11 06:34:32;;;;;;;7.47;5.53;;;;;;;;;;5114433;28;20476;-68
2021/09/11 06:36:58;;;;;;;7.85;5.25;;;;;;;;;;5114303;28;20047;-68
2021/09/11 06:39:25;;;;;;;9.48;5.25;;;;;;;;;;5114507;28;20027;-68
2021/09/11 06:41:51;;;;;;;12.45;5.00;;;;;;;;;;5114734;28;20398;-68
2021/09/11 06:44:17;;;;;;;10.73;5.80;;;;;;;;;;5114260;28;20065;-70
2021/09/11 06:46:43;;;;;;;16.38;5.50;;;;;;;;;;5113985;28;20023;-68
2021/09/11 06:49:10;;;;;;;8.15;5.57;;;;;;;;;;5114219;28;20019;-68
2021/09/11 06:51:36;;;;;;;8.65;5.47;;;;;;;;;;5114159;28;20108;-68
2021/09/11 06:54:02;;;;;;;12.00;5.45;;;;;;;;;;5113952;28;20462;-70
2021/09/11 06:56:28;;;;;;;17.77;5.80;;;;;;;;;;5113744;28;20067;-68
2021/09/11 06:58:54;;;;;;;8.80;5.38;;;;;;;;;;5113784;28;20027;-69
2021/09/11 07:01:23;;;;;;;21.60;6.13;;;;;;;;;;5113619;28;20035;-69
2021/09/11 07:03:49;;;;;;;8.82;5.13;;;;;;;;;;5110589;28;20027;-69
2021/09/11 07:06:15;;;;;;;8.52;5.43;;;;;;;;;;5110363;28;20031;-68
2021/09/11 07:08:41;;;;;;;13.18;5.80;;;;;;;;;;5111468;28;20077;-68
2021/09/11 07:11:11;;;;;;;12.63;5.22;;;;;;;;;;5113815;28;20031;-68
2021/09/11 07:13:37;;;;;;;11.32;5.30;;;;;;;;;;5113731;28;20495;-68
2021/09/11 07:16:04;;;;;;;13.18;5.28;;;;;;;;;;5113570;28;20101;-69
2021/09/11 07:18:30;;;;;;;8.15;5.10;;;;;;;;;;5113907;28;20049;-69
2021/09/11 07:20:55;;;;;;;10.10;5.38;;;;;;;;;;5113506;28;20392;-69
2021/09/11 07:23:21;;;;;;;9.10;4.75;;;;;;;;;;5113723;28;20034;-68
2021/09/11 07:25:47;;;;;;;9.77;4.90;;;;;;;;;;5113678;28;20023;-69
2021/09/11 07:28:13;;;;;;;7.93;4.65;;;;;;;;;;5113391;28;20468;-68
2021/09/11 07:30:39;;;;;;;9.93;4.60;;;;;;;;;;5113263;28;20030;-68
2021/09/11 07:33:06;;;;;;;10.75;4.55;;;;;;;;;;5113245;28;20038;-68
2021/09/11 07:35:32;;;;;;;13.00;4.95;;;;;;;;;;5111150;28;20396;-68
2021/09/11 07:37:58;;;;;;;13.30;4.30;;;;;;;;;;5111718;28;20031;-68
2021/09/11 07:40:24;;;;;;;7.35;4.90;;;;;;;;;;5112990;28;20023;-69
2021/09/11 07:42:50;;;;;;;8.25;4.32;;;;;;;;;;5112388;28;20396;-67
2021/09/11 07:45:16;;;;;;;10.40;4.18;;;;;;;;;;5113201;28;20042;-68
2021/09/11 07:47:42;;;;;;;7.60;4.53;;;;;;;;;;5113637;28;20081;-67
2021/09/11 07:50:10;;;;;;;12.88;4.22;;;;;;;;;;5113591;28;20027;-70
2021/09/11 07:52:36;;;;;;;7.40;3.90;;;;;;;;;;5112715;28;20055;-67
2021/09/11 07:55:02;;;;;;;6.63;4.40;;;;;;;;;;5112828;28;20510;-68
2021/09/11 07:57:28;;;;;;;9.63;4.40;;;;;;;;;;5113127;28;20042;-67
2021/09/11 07:59:55;;;;;;;11.38;4.60;;;;;;;;;;5113410;28;20024;-68
2021/09/11 08:02:21;;;;;;;12.85;4.90;;;;;;;;;;5112543;28;20027;-67
2021/09/11 08:04:47;;;;;;;10.80;4.75;;;;;;;;;;5113000;28;20460;-67
2021/09/11 08:07:13;;;;;;;9.40;4.60;;;;;;;;;;5112356;28;20027;-68
2021/09/11 08:09:39;;;;;;;8.23;4.45;;;;;;;;;;5112446;28;20503;-70
2021/09/11 08:12:05;;;;;;;6.07;4.55;;;;;;;;;;5112577;28;20031;-68
2021/09/11 08:14:31;;;;;;;9.07;4.93;;;;;;;;;;5112436;28;20031;-71
2021/09/11 08:16:57;;;;;;;11.88;4.55;;;;;;;;;;5112694;28;20027;-71
2021/09/11 08:19:24;;;;;;;13.70;4.75;;;;;;;;;;5116204;28;20019;-68
2021/09/11 08:21:50;;;;;;;6.40;4.80;;;;;;;;;;5117474;28;20475;-67
2021/09/11 08:24:16;;;;;;;7.28;4.90;;;;;;;;;;5117178;28;20019;-69
2021/09/11 08:26:42;;;;;;;8.18;4.50;;;;;;;;;;5117163;28;20384;-68
2021/09/11 08:29:08;;;;;;;7.07;4.82;;;;;;;;;;5117085;28;20019;-70
2021/09/11 08:31:34;;;;;;;5.03;4.00;;;;;;;;;;5117164;28;20031;-68
2021/09/11 08:34:00;;;;;;;8.80;4.28;;;;;;;;;;5117212;28;20071;-68
2021/09/11 08:36:26;;;;;;;13.25;4.30;;;;;;;;;;5116766;28;20051;-67
2021/09/11 08:38:52;;;;;;;10.57;4.97;;;;;;;;;;5116950;28;20027;-68
2021/09/11 08:41:18;;;;;;;11.27;4.68;;;;;;;;;;5116748;28;20023;-68
2021/09/11 08:43:44;;;;;;;10.85;4.57;;;;;;;;;;5116943;28;20024;-68
2021/09/11 08:46:10;;;;;;;9.68;4.55;;;;;;;;;;5116753;28;20033;-67
2021/09/11 08:48:36;;;;;;;7.43;4.20;;;;;;;;;;5116957;28;20028;-69
2021/09/11 08:51:02;;;;;;;12.43;4.53;;;;;;;;;;5116683;28;20062;-68
2021/09/11 08:53:28;;;;;;;12.65;4.68;;;;;;;;;;5116785;28;20384;-69
2021/09/11 08:55:54;;;;;;;9.05;4.63;;;;;;;;;;5116480;28;20095;-68
2021/09/11 08:58:21;;;;;;;8.43;4.28;;;;;;;;;;5116395;28;20012;-67
2021/09/11 09:00:54;;;;;;;7.10;4.40;;;;;;;;;;5116496;28;20032;-69
2021/09/11 09:03:26;;;;;;;9.90;4.05;;;;;;;;;;5116153;28;20548;-70
2021/09/11 09:05:53;;;;;;;13.68;4.00;;;;;;;;;;5116401;28;20385;-68
2021/09/11 09:08:28;;;;;;;9.23;4.57;;;;;;;;;;5116023;28;20357;-68
2021/09/11 09:10:54;;;;;;;5.68;3.97;;;;;;;;;;5116371;28;20165;-67
2021/09/11 09:13:20;;;;;;;9.00;4.63;;;;;;;;;;5116460;28;20023;-70
2021/09/11 09:15:47;;;;;;;6.22;4.22;;;;;;;;;;5116140;28;20032;-68
2021/09/11 09:18:15;;;;;;;10.95;4.53;;;;;;;;;;5115943;28;20380;-68
2021/09/11 09:20:42;;;;;;;7.35;3.80;;;;;;;;;;5116204;28;20064;-70
2021/09/11 09:23:17;;;;;;;10.35;3.92;;;;;;;;;;5116164;28;20019;-68
2021/09/11 09:25:44;;;;;;;6.40;4.43;;;;;;;;;;5116154;28;20032;-71
2021/09/11 09:28:14;;;;;;;6.00;4.85;;;;;;;;;;5116112;28;20414;-68
2021/09/11 09:30:40;;;;;;;5.57;4.20;;;;;;;;;;5115452;28;20522;-68
2021/09/11 09:33:08;;;;;;;5.95;4.35;;;;;;;;;;5115731;28;20042;-71
2021/09/11 09:35:34;;;;;;;6.95;3.88;;;;;;;;;;5115300;28;20035;-68
2021/09/11 09:38:07;;;;;;;10.65;4.10;;;;;;;;;;5115694;28;20059;-70
2021/09/11 09:40:34;;;;;;;6.22;3.90;;;;;;;;;;5115843;28;20424;-68
2021/09/11 09:43:01;;;;;;;9.85;4.30;;;;;;;;;;5115466;28;20536;-68
2021/09/11 09:45:30;;;;;;;7.07;4.55;;;;;;;;;;5115420;28;20020;-71
2021/09/11 09:48:06;;;;;;;7.78;4.00;;;;;;;;;;5115792;28;20063;-69
2021/09/11 09:50:33;;;;;;;5.60;3.80;;;;;;;;;;5115407;28;20049;-69
2021/09/11 09:53:00;;;;;;;9.02;4.32;;;;;;;;;;5115711;28;20521;-70
2021/09/11 09:55:26;;;;;;;6.75;3.90;;;;;;;;;;5115376;28;20102;-68
2021/09/11 09:57:52;;;;;;;9.38;3.70;;;;;;;;;;5115378;28;20036;-68
2021/09/11 10:00:19;;;;;;;5.22;3.38;;;;;;;;;;5115216;28;20027;-70
2021/09/11 10:02:45;;;;;;;6.72;3.97;;;;;;;;;;5115123;28;20112;-70
2021/09/11 10:05:14;;;;;;;8.45;3.42;;;;;;;;;;5115111;28;20023;-71
2021/09/11 10:07:55;;;;;;;4.97;3.55;;;;;;;;;;5115258;28;20027;-68
2021/09/11 10:10:41;;;;;;;4.50;3.50;;;;;;;;;;5114994;28;20054;-70
2021/09/11 10:13:07;;;;;;;5.95;3.78;;;;;;;;;;5115060;28;20062;-70
2021/09/11 10:15:35;;;;;;;8.35;3.50;;;;;;;;;;5114923;28;20101;-68
2021/09/11 10:18:01;;;;;;;11.50;3.72;;;;;;;;;;5114762;28;20073;-68
2021/09/11 10:20:27;;;;;;;8.35;3.70;;;;;;;;;;5114832;28;20032;-68
2021/09/11 10:23:08;;;;;;;5.63;4.18;;;;;;;;;;5114811;28;20452;-68
2021/09/11 10:25:43;;;;;;;8.32;3.70;;;;;;;;;;5115003;28;20027;-71
2021/09/11 10:28:16;;;;;;;7.70;3.78;;;;;;;;;;5114658;28;20484;-71
2021/09/11 10:31:01;;;;;;;5.80;3.58;;;;;;;;;;5114549;28;20034;-71
2021/09/11 10:33:43;;;;;;;7.18;3.72;;;;;;;;;;5114588;28;20031;-70
2021/09/11 10:36:11;;;;;;;6.30;3.60;;;;;;;;;;5114888;28;20392;-71
2021/09/11 10:38:41;;;;;;;10.15;3.92;;;;;;;;;;5114553;28;20043;-68
2021/09/11 10:41:10;;;;;;;6.07;3.90;;;;;;;;;;5113919;28;20361;-68
2021/09/11 10:43:36;;;;;;;11.10;4.25;;;;;;;;;;5114236;28;20020;-70
2021/09/11 10:46:06;;;;;;;9.98;4.10;;;;;;;;;;5114366;28;20231;-68
2021/09/11 10:48:44;;;;;;;8.63;4.28;;;;;;;;;;5114412;28;20023;-69
2021/09/11 10:51:17;;;;;;;10.07;3.92;;;;;;;;;;5114293;28;20042;-69
2021/09/11 10:53:58;;;;;;;8.13;3.97;;;;;;;;;;5114182;28;20030;-68
2021/09/11 10:56:29;;;;;;;9.70;4.10;;;;;;;;;;5114123;28;20484;-68
2021/09/11 10:59:13;;;;;;;8.75;4.82;;;;;;;;;;5114225;28;20170;-68
2021/09/11 11:01:55;;;;;;;6.90;4.47;;;;;;;;;;5114174;28;20088;-68
2021/09/11 11:04:24;;;;;;;18.58;4.10;;;;;;;;;;5114037;28;20031;-68
2021/09/11 11:06:54;;;;;;;11.60;4.07;;;;;;;;;;5114228;28;20398;-71
2021/09/11 11:09:21;;;;;;;12.85;4.63;;;;;;;;;;5113930;28;20384;-71
2021/09/11 11:11:48;;;;;;;7.72;4.50;;;;;;;;;;5113992;28;20020;-67
2021/09/11 11:14:14;;;;;;;7.32;4.15;;;;;;;;;;5113870;28;20369;-68
2021/09/11 11:16:46;;;;;;;6.50;3.95;;;;;;;;;;5113908;28;20385;-71
2021/09/11 11:19:19;;;;;;;5.95;4.15;;;;;;;;;;5113624;28;20031;-68
2021/09/11 11:21:55;;;;;;;9.93;4.00;;;;;;;;;;5113790;28;20028;-69
2021/09/11 11:24:21;;;;;;;10.73;4.20;;;;;;;;;;5113859;28;20034;-71
2021/09/11 11:26:47;;;;;;;5.00;4.15;;;;;;;;;;5113858;28;20102;-68
2021/09/11 11:29:14;;;;;;;8.77;4.38;;;;;;;;;;5113934;28;20399;-68
2021/09/11 11:31:42;;;;;;;7.72;4.35;;;;;;;;;;5113808;28;20016;-68
2021/09/11 11:34:08;;;;;;;8.90;4.28;;;;;;;;;;5113637;28;20030;-68
2021/09/11 11:36:34;;;;;;;11.38;4.72;;;;;;;;;;5113283;28;20062;-71
2021/09/11 11:39:19;;;;;;;8.55;4.10;;;;;;;;;;5113756;28;20024;-70
2021/09/11 11:41:54;;;;;;;13.00;4.50;;;;;;;;;;5113479;28;20027;-70
2021/09/11 11:44:21;;;;;;;8.88;4.53;;;;;;;;;;5113558;28;20051;-68
2021/09/11 11:46:48;;;;;;;13.30;4.53;;;;;;;;;;5113351;28;20052;-68
2021/09/11 11:49:14;;;;;;;9.73;4.53;;;;;;;;;;5113612;28;20019;-71
2021/09/11 11:51:40;;;;;;;11.43;4.82;;;;;;;;;;5113615;28;20028;-68
2021/09/11 11:54:06;;;;;;;5.82;4.25;;;;;;;;;;5116629;28;20033;-69
2021/09/11 11:56:45;;;;;;;7.05;3.90;;;;;;;;;;5117383;28;20067;-69
2021/09/11 11:59:11;;;;;;;12.25;4.72;;;;;;;;;;5117776;28;20027;-68
2021/09/11 12:01:37;;;;;;;4.88;4.10;;;;;;;;;;5117528;28;20379;-68
2021/09/11 12:04:14;;;;;;;6.07;4.07;;;;;;;;;;5116168;28;20023;-69
2021/09/11 12:06:47;;;;;;;9.65;4.25;;;;;;;;;;5117466;28;20024;-68
2021/09/11 12:09:15;;;;;;;10.02;4.25;;;;;;;;;;5116241;28;20106;-68
2021/09/11 12:11:41;;;;;;;7.97;4.07;;;;;;;;;;5117642;28;20027;-69
2021/09/11 12:14:08;;;;;;;11.20;4.28;;;;;;;;;;5117193;28;20398;-70
2021/09/11 12:16:34;;;;;;;8.85;4.50;;;;;;;;;;5117146;28;20038;-68
2021/09/11 12:19:13;;;;;;;10.02;4.40;;;;;;;;;;5117194;28;20058;-69
2021/09/11 12:21:39;;;;;;;5.90;3.97;;;;;;;;;;5117309;28;20111;-68
2021/09/11 12:24:05;;;;;;;9.32;4.65;;;;;;;;;;5117517;28;20024;-69
2021/09/11 12:26:32;;;;;;;12.20;4.45;;;;;;;;;;5117234;28;20357;-68
2021/09/11 12:29:05;;;;;;;8.10;4.28;;;;;;;;;;5117073;28;20016;-69
2021/09/11 12:31:33;;;;;;;9.60;4.40;;;;;;;;;;5117005;28;20077;-71
2021/09/11 12:34:04;;;;;;;11.20;4.60;;;;;;;;;;5116832;28;20028;-70
2021/09/11 12:36:32;;;;;;;7.30;4.72;;;;;;;;;;5116673;28;20506;-70
2021/09/11 12:39:00;;;;;;;7.75;4.03;;;;;;;;;;5116868;28;20533;-68
2021/09/11 12:41:26;;;;;;;7.55;4.43;;;;;;;;;;5116865;28;20100;-68
2021/09/11 12:43:52;;;;;;;8.40;4.70;;;;;;;;;;5116681;28;20099;-69
2021/09/11 12:46:28;;;;;;;17.50;4.70;;;;;;;;;;5116792;28;20514;-69
2021/09/11 12:48:54;;;;;;;6.88;4.38;;;;;;;;;;5116949;28;20107;-71
2021/09/11 12:51:20;;;;;;;11.25;4.70;;;;;;;;;;5116693;28;20060;-68
2021/09/11 12:53:46;;;;;;;8.80;4.78;;;;;;;;;;5116743;28;20027;-68
2021/09/11 12:56:17;;;;;;;10.75;5.00;;;;;;;;;;5116530;28;20476;-69
2021/09/11 12:58:43;;;;;;;8.73;4.27;;;;;;;;;;5116277;28;20027;-69
2021/09/11 13:01:09;;;;;;;10.70;4.38;;;;;;;;;;5116313;28;20057;-68
2021/09/11 13:03:35;;;;;;;10.13;4.53;;;;;;;;;;5115663;28;20407;-68
2021/09/11 13:06:01;;;;;;;11.60;4.70;;;;;;;;;;5116319;28;20028;-69
2021/09/11 13:08:27;;;;;;;11.43;4.47;;;;;;;;;;5116372;28;20016;-68
2021/09/11 13:10:54;;;;;;;10.35;5.00;;;;;;;;;;5116178;28;20506;-68
2021/09/11 13:13:20;;;;;;;8.95;4.20;;;;;;;;;;5116224;28;20023;-71
2021/09/11 13:15:46;;;;;;;10.30;4.45;;;;;;;;;;5116220;28;20024;-69
2021/09/11 13:18:12;;;;;;;11.15;4.72;;;;;;;;;;5116108;28;20028;-69
2021/09/11 13:20:38;;;;;;;10.73;4.65;;;;;;;;;;5114521;28;20042;-68
2021/09/11 13:23:04;;;;;;;8.88;4.72;;;;;;;;;;5116063;28;20472;-69
2021/09/11 13:25:30;;;;;;;15.05;5.20;;;;;;;;;;5116001;28;20028;-68
2021/09/11 13:27:56;;;;;;;14.45;5.28;;;;;;;;;;5115899;28;20029;-69
2021/09/11 13:30:22;;;;;;;5.63;3.95;;;;;;;;;;5115844;28;20149;-72
2021/09/11 13:32:48;;;;;;;7.63;4.72;;;;;;;;;;5116221;28;20027;-69
2021/09/11 13:35:14;;;;;;;15.90;4.55;;;;;;;;;;5115489;28;20031;-69
2021/09/11 13:37:42;;;;;;;9.85;5.00;;;;;;;;;;5115890;28;20380;-69
2021/09/11 13:40:09;;;;;;;12.45;5.05;;;;;;;;;;5115976;28;20024;-69
2021/09/11 13:42:35;;;;;;;9.43;4.85;;;;;;;;;;5115682;28;20096;-69
2021/09/11 13:45:01;;;;;;;7.85;4.32;;;;;;;;;;5115571;28;20027;-71
2021/09/11 13:47:27;;;;;;;10.82;4.10;;;;;;;;;;5115872;28;20020;-69
2021/09/11 13:49:53;;;;;;;18.80;5.25;;;;;;;;;;5115392;28;20471;-68
2021/09/11 13:52:19;;;;;;;12.18;4.75;;;;;;;;;;5115394;28;20031;-69
2021/09/11 13:54:45;;;;;;;7.63;4.18;;;;;;;;;;5113921;28;20039;-69
2021/09/11 13:57:11;;;;;;;6.90;4.50;;;;;;;;;;5114464;28;20114;-69
2021/09/11 13:59:39;;;;;;;10.68;4.35;;;;;;;;;;5111570;28;20028;-69
2021/09/11 14:02:05;;;;;;;9.88;4.22;;;;;;;;;;5111939;28;20024;-70
2021/09/11 14:04:31;;;;;;;9.18;4.38;;;;;;;;;;5113878;28;20024;-69
2021/09/11 14:06:58;;;;;;;12.55;4.90;;;;;;;;;;5115121;28;20031;-69
2021/09/11 14:09:24;;;;;;;11.63;5.00;;;;;;;;;;5114980;28;20027;-69
2021/09/11 14:11:50;;;;;;;9.75;4.38;;;;;;;;;;5114921;28;20024;-69
2021/09/11 14:14:16;;;;;;;10.07;4.90;;;;;;;;;;5114686;28;20073;-69
2021/09/11 14:16:42;;;;;;;8.23;3.92;;;;;;;;;;5113733;28;20063;-69
2021/09/11 14:19:08;;;;;;;7.68;4.30;;;;;;;;;;5114485;28;20050;-70
2021/09/11 14:21:34;;;;;;;12.85;4.82;;;;;;;;;;5114623;28;20016;-71
2021/09/11 14:24:00;;;;;;;10.98;4.70;;;;;;;;;;5110261;28;20521;-71
2021/09/11 14:26:26;;;;;;;15.18;6.38;;;;;;;;;;5110443;28;20039;-71
2021/09/11 14:28:55;;;;;;;11.15;5.00;;;;;;;;;;5112017;28;20031;-70
2021/09/11 14:31:21;;;;;;;6.97;4.40;;;;;;;;;;5113847;28;20024;-70
2021/09/11 14:33:47;;;;;;;11.35;4.90;;;;;;;;;;5113801;28;20541;-70
2021/09/11 14:36:13;;;;;;;13.63;4.30;;;;;;;;;;5113293;28;20049;-70
2021/09/11 14:38:39;;;;;;;6.80;4.35;;;;;;;;;;5114010;28;20383;-70